sensor_id;sensor_type;location;lat;lon;timestamp;temperature;humidity
9219;DHT22;4644;48.858;9.184;2023-03-01T00:00:07;-0.70;99.90
9219;DHT22;4644;48.858;9.184;2023-03-01T00:02:35;-0.70;99.90
9219;DHT22;4644;48.858;9.184;2023-03-01T00:05:03;-0.70;99.90
9219;DHT22;4644;48.858;9.184;2023-03-01T00:07:30;-0.70;99.90
9219;DHT22;4644;48.858;9.184;2023-03-01T00:09:59;-0.70;99.90
9219;DHT22;4644;48.858;9.184;2023-03-01T00:12:26;-0.80;99.90
9219;DHT22;4644;48.858;9.184;2023-03-01T00:14:53;-0.80;99.90
9219;DHT22;4644;48.858;9.184;2023-03-01T00:17:20;-0.80;99.90
9219;DHT22;4644;48.858;9.184;2023-03-01T00:19:47;-0.80;99.90
9219;DHT22;4644;48.858;9.184;2023-03-01T00:22:14;-0.80;99.90
9219;DHT22;4644;48.858;9.184;2023-03-01T00:24:41;-0.80;99.90
9219;DHT22;4644;48.858;9.184;2023-03-01T00:27:09;-0.80;99.90
9219;DHT22;4644;48.858;9.184;2023-03-01T00:29:36;-0.80;99.90
9219;DHT22;4644;48.858;9.184;2023-03-01T00:32:03;-0.80;99.90
9219;DHT22;4644;48.858;9.184;2023-03-01T00:34:30;-0.80;99.90
9219;DHT22;4644;48.858;9.184;2023-03-01T00:36:57;-0.80;99.90
9219;DHT22;4644;48.858;9.184;2023-03-01T00:39:31;-0.80;99.90
9219;DHT22;4644;48.858;9.184;2023-03-01T00:41:58;-0.80;99.90
9219;DHT22;4644;48.858;9.184;2023-03-01T00:44:27;-0.80;99.90
9219;DHT22;4644;48.858;9.184;2023-03-01T00:46:54;-0.80;99.90
9219;DHT22;4644;48.858;9.184;2023-03-01T00:49:21;-0.80;99.90
9219;DHT22;4644;48.858;9.184;2023-03-01T00:51:49;-0.80;99.90
9219;DHT22;4644;48.858;9.184;2023-03-01T00:54:16;-0.80;99.90
9219;DHT22;4644;48.858;9.184;2023-03-01T00:56:43;-0.80;99.90
9219;DHT22;4644;48.858;9.184;2023-03-01T00:59:10;-0.80;99.90
9219;DHT22;4644;48.858;9.184;2023-03-01T01:01:38;-0.90;99.90
9219;DHT22;4644;48.858;9.184;2023-03-01T01:04:07;-0.90;99.90
9219;DHT22;4644;48.858;9.184;2023-03-01T01:06:37;-0.90;99.90
9219;DHT22;4644;48.858;9.184;2023-03-01T01:09:05;-1.00;99.90
9219;DHT22;4644;48.858;9.184;2023-03-01T01:11:34;-1.00;99.90
9219;DHT22;4644;48.858;9.184;2023-03-01T01:14:03;-1.00;99.90
9219;DHT22;4644;48.858;9.184;2023-03-01T01:16:30;-1.00;99.90
9219;DHT22;4644;48.858;9.184;2023-03-01T01:18:59;-1.10;99.90
9219;DHT22;4644;48.858;9.184;2023-03-01T01:21:26;-1.10;99.90
9219;DHT22;4644;48.858;9.184;2023-03-01T01:23:54;-1.20;99.90
9219;DHT22;4644;48.858;9.184;2023-03-01T01:26:23;-1.10;99.90
9219;DHT22;4644;48.858;9.184;2023-03-01T01:28:51;-1.20;99.90
9219;DHT22;4644;48.858;9.184;2023-03-01T01:31:18;-1.20;99.90
9219;DHT22;4644;48.858;9.184;2023-03-01T01:33:46;-1.30;99.90
9219;DHT22;4644;48.858;9.184;2023-03-01T01:36:14;-1.30;99.90
9219;DHT22;4644;48.858;9.184;2023-03-01T01:38:41;-1.30;99.90
9219;DHT22;4644;48.858;9.184;2023-03-01T01:41:10;-1.30;99.90
9219;DHT22;4644;48.858;9.184;2023-03-01T01:43:40;-1.30;99.90
9219;DHT22;4644;48.858;9.184;2023-03-01T01:46:16;-1.30;99.90
9219;DHT22;4644;48.858;9.184;2023-03-01T01:48:47;-1.30;99.90
9219;DHT22;4644;48.858;9.184;2023-03-01T01:51:20;-1.30;99.90
9219;DHT22;4644;48.858;9.184;2023-03-01T01:53:51;-1.30;99.90
9219;DHT22;4644;48.858;9.184;2023-03-01T01:56:20;-1.30;99.90
9219;DHT22;4644;48.858;9.184;2023-03-01T01:58:48;-1.30;99.90
9219;DHT22;4644;48.858;9.184;2023-03-01T02:01:16;-1.30;99.90
9219;DHT22;4644;48.858;9.184;2023-03-01T02:03:44;-1.30;99.90
9219;DHT22;4644;48.858;9.184;2023-03-01T02:06:19;-1.30;99.90
9219;DHT22;4644;48.858;9.184;2023-03-01T02:08:49;-1.30;99.90
9219;DHT22;4644;48.858;9.184;2023-03-01T02:11:18;-1.20;99.90
9219;DHT22;4644;48.858;9.184;2023-03-01T02:13:47;-1.20;99.90
9219;DHT22;4644;48.858;9.184;2023-03-01T02:16:16;-1.10;99.90
9219;DHT22;4644;48.858;9.184;2023-03-01T02:18:44;-1.20;99.90
9219;DHT22;4644;48.858;9.184;2023-03-01T02:21:23;-1.20;99.90
9219;DHT22;4644;48.858;9.184;2023-03-01T02:23:53;-1.10;99.90
9219;DHT22;4644;48.858;9.184;2023-03-01T02:26:29;-1.10;99.90
9219;DHT22;4644;48.858;9.184;2023-03-01T02:29:01;-1.10;99.90
9219;DHT22;4644;48.858;9.184;2023-03-01T02:31:28;-1.00;99.90
9219;DHT22;4644;48.858;9.184;2023-03-01T02:34:13;-1.00;99.90
9219;DHT22;4644;48.858;9.184;2023-03-01T02:36:43;-1.00;99.90
9219;DHT22;4644;48.858;9.184;2023-03-01T02:39:15;-0.90;99.90
9219;DHT22;4644;48.858;9.184;2023-03-01T02:41:47;-0.80;99.90
9219;DHT22;4644;48.858;9.184;2023-03-01T02:44:16;-0.80;99.90
9219;DHT22;4644;48.858;9.184;2023-03-01T02:46:44;-0.80;99.90
9219;DHT22;4644;48.858;9.184;2023-03-01T02:49:20;-0.80;99.90
9219;DHT22;4644;48.858;9.184;2023-03-01T02:51:56;-0.70;99.90
9219;DHT22;4644;48.858;9.184;2023-03-01T02:54:30;-0.80;99.90
9219;DHT22;4644;48.858;9.184;2023-03-01T02:56:58;-0.70;99.90
9219;DHT22;4644;48.858;9.184;2023-03-01T02:59:30;-0.70;99.90
9219;DHT22;4644;48.858;9.184;2023-03-01T03:01:58;-0.70;99.90
9219;DHT22;4644;48.858;9.184;2023-03-01T03:04:27;-0.60;99.90
9219;DHT22;4644;48.858;9.184;2023-03-01T03:06:53;-0.60;99.90
9219;DHT22;4644;48.858;9.184;2023-03-01T03:09:20;-0.60;99.90
9219;DHT22;4644;48.858;9.184;2023-03-01T03:11:47;-0.60;99.90
9219;DHT22;4644;48.858;9.184;2023-03-01T03:14:16;-0.50;99.90
9219;DHT22;4644;48.858;9.184;2023-03-01T03:16:46;-0.50;99.90
9219;DHT22;4644;48.858;9.184;2023-03-01T03:19:14;-0.50;99.90
9219;DHT22;4644;48.858;9.184;2023-03-01T03:21:42;-0.50;99.90
9219;DHT22;4644;48.858;9.184;2023-03-01T03:24:09;-0.50;99.90
9219;DHT22;4644;48.858;9.184;2023-03-01T03:26:36;-0.40;99.90
9219;DHT22;4644;48.858;9.184;2023-03-01T03:29:04;-0.40;99.90
9219;DHT22;4644;48.858;9.184;2023-03-01T03:31:31;-0.40;99.90
9219;DHT22;4644;48.858;9.184;2023-03-01T03:33:59;-0.40;99.90
9219;DHT22;4644;48.858;9.184;2023-03-01T03:36:26;-0.40;99.90
9219;DHT22;4644;48.858;9.184;2023-03-01T03:38:53;-0.30;99.90
9219;DHT22;4644;48.858;9.184;2023-03-01T03:41:20;-0.40;99.90
9219;DHT22;4644;48.858;9.184;2023-03-01T03:43:47;-0.30;99.90
9219;DHT22;4644;48.858;9.184;2023-03-01T03:46:14;-0.30;99.90
9219;DHT22;4644;48.858;9.184;2023-03-01T03:48:43;-0.40;99.90
9219;DHT22;4644;48.858;9.184;2023-03-01T03:51:13;-0.40;99.90
9219;DHT22;4644;48.858;9.184;2023-03-01T03:53:41;-0.30;99.90
9219;DHT22;4644;48.858;9.184;2023-03-01T03:56:08;-0.40;99.90
9219;DHT22;4644;48.858;9.184;2023-03-01T03:58:36;-0.30;99.90
9219;DHT22;4644;48.858;9.184;2023-03-01T04:01:03;-0.30;99.90
9219;DHT22;4644;48.858;9.184;2023-03-01T04:03:31;-0.30;99.90
9219;DHT22;4644;48.858;9.184;2023-03-01T04:05:59;-0.30;99.90
9219;DHT22;4644;48.858;9.184;2023-03-01T04:08:28;-0.30;99.90
9219;DHT22;4644;48.858;9.184;2023-03-01T04:10:59;-0.30;99.90
9219;DHT22;4644;48.858;9.184;2023-03-01T04:13:47;-0.30;99.90
9219;DHT22;4644;48.858;9.184;2023-03-01T04:16:14;-0.30;99.90
9219;DHT22;4644;48.858;9.184;2023-03-01T04:18:41;-0.30;99.90
9219;DHT22;4644;48.858;9.184;2023-03-01T04:21:08;-0.30;99.90
9219;DHT22;4644;48.858;9.184;2023-03-01T04:23:37;-0.30;99.90
9219;DHT22;4644;48.858;9.184;2023-03-01T04:26:06;-0.30;99.90
9219;DHT22;4644;48.858;9.184;2023-03-01T04:28:35;-0.20;99.90
9219;DHT22;4644;48.858;9.184;2023-03-01T04:31:04;-0.20;99.90
9219;DHT22;4644;48.858;9.184;2023-03-01T04:33:38;-0.20;99.90
9219;DHT22;4644;48.858;9.184;2023-03-01T04:36:06;-0.20;99.90
9219;DHT22;4644;48.858;9.184;2023-03-01T04:38:34;-0.20;99.90
9219;DHT22;4644;48.858;9.184;2023-03-01T04:41:04;-0.20;99.90
9219;DHT22;4644;48.858;9.184;2023-03-01T04:43:31;-0.20;99.90
9219;DHT22;4644;48.858;9.184;2023-03-01T04:46:03;-0.20;99.90
9219;DHT22;4644;48.858;9.184;2023-03-01T04:48:31;-0.20;99.90
9219;DHT22;4644;48.858;9.184;2023-03-01T04:50:59;-0.20;99.90
9219;DHT22;4644;48.858;9.184;2023-03-01T04:53:27;-0.20;99.90
9219;DHT22;4644;48.858;9.184;2023-03-01T04:55:54;-0.10;99.90
9219;DHT22;4644;48.858;9.184;2023-03-01T04:58:23;-0.20;99.90
9219;DHT22;4644;48.858;9.184;2023-03-01T05:00:51;-0.20;99.90
9219;DHT22;4644;48.858;9.184;2023-03-01T05:03:18;-0.20;99.90
9219;DHT22;4644;48.858;9.184;2023-03-01T05:05:47;-0.20;99.90
9219;DHT22;4644;48.858;9.184;2023-03-01T05:08:14;-0.20;99.90
9219;DHT22;4644;48.858;9.184;2023-03-01T05:10:45;-0.20;99.90
9219;DHT22;4644;48.858;9.184;2023-03-01T05:13:13;-0.20;99.90
9219;DHT22;4644;48.858;9.184;2023-03-01T05:15:46;-0.20;99.90
9219;DHT22;4644;48.858;9.184;2023-03-01T05:18:13;-0.20;99.90
9219;DHT22;4644;48.858;9.184;2023-03-01T05:20:40;-0.20;99.90
9219;DHT22;4644;48.858;9.184;2023-03-01T05:23:07;-0.20;99.90
9219;DHT22;4644;48.858;9.184;2023-03-01T05:25:34;-0.20;99.90
9219;DHT22;4644;48.858;9.184;2023-03-01T05:28:06;-0.20;99.90
9219;DHT22;4644;48.858;9.184;2023-03-01T05:30:35;-0.20;99.90
9219;DHT22;4644;48.858;9.184;2023-03-01T05:33:08;-0.20;99.90
9219;DHT22;4644;48.858;9.184;2023-03-01T05:35:39;-0.20;99.90
9219;DHT22;4644;48.858;9.184;2023-03-01T05:38:08;-0.20;99.90
9219;DHT22;4644;48.858;9.184;2023-03-01T05:40:35;-0.10;99.90
9219;DHT22;4644;48.858;9.184;2023-03-01T05:43:02;-0.10;99.90
9219;DHT22;4644;48.858;9.184;2023-03-01T05:45:31;-0.10;99.90
9219;DHT22;4644;48.858;9.184;2023-03-01T05:47:59;-0.10;99.90
9219;DHT22;4644;48.858;9.184;2023-03-01T05:50:29;-0.10;99.90
9219;DHT22;4644;48.858;9.184;2023-03-01T05:53:00;0.00;99.90
9219;DHT22;4644;48.858;9.184;2023-03-01T05:55:28;0.00;99.90
9219;DHT22;4644;48.858;9.184;2023-03-01T05:57:58;0.00;99.90
9219;DHT22;4644;48.858;9.184;2023-03-01T06:00:26;0.00;99.90
9219;DHT22;4644;48.858;9.184;2023-03-01T06:02:53;0.00;99.90
9219;DHT22;4644;48.858;9.184;2023-03-01T06:05:21;0.00;99.90
9219;DHT22;4644;48.858;9.184;2023-03-01T06:07:49;0.10;99.90
9219;DHT22;4644;48.858;9.184;2023-03-01T06:10:17;0.10;99.90
9219;DHT22;4644;48.858;9.184;2023-03-01T06:12:44;0.10;99.90
9219;DHT22;4644;48.858;9.184;2023-03-01T06:15:12;0.00;99.90
9219;DHT22;4644;48.858;9.184;2023-03-01T06:17:41;0.00;99.90
9219;DHT22;4644;48.858;9.184;2023-03-01T06:20:10;0.00;99.90
9219;DHT22;4644;48.858;9.184;2023-03-01T06:22:38;0.00;99.90
9219;DHT22;4644;48.858;9.184;2023-03-01T06:25:07;0.10;99.90
9219;DHT22;4644;48.858;9.184;2023-03-01T06:27:34;0.10;99.90
9219;DHT22;4644;48.858;9.184;2023-03-01T06:30:01;0.10;99.90
9219;DHT22;4644;48.858;9.184;2023-03-01T06:32:28;0.10;99.90
9219;DHT22;4644;48.858;9.184;2023-03-01T06:34:55;0.10;99.90
9219;DHT22;4644;48.858;9.184;2023-03-01T06:37:24;0.10;99.90
9219;DHT22;4644;48.858;9.184;2023-03-01T06:39:51;0.10;99.90
9219;DHT22;4644;48.858;9.184;2023-03-01T06:42:19;0.10;99.90
9219;DHT22;4644;48.858;9.184;2023-03-01T06:44:46;0.10;99.90
9219;DHT22;4644;48.858;9.184;2023-03-01T06:47:13;0.00;99.90
9219;DHT22;4644;48.858;9.184;2023-03-01T06:49:41;0.00;99.90
9219;DHT22;4644;48.858;9.184;2023-03-01T06:52:08;-0.10;99.90
9219;DHT22;4644;48.858;9.184;2023-03-01T06:54:35;-0.10;99.90
9219;DHT22;4644;48.858;9.184;2023-03-01T06:57:02;-0.20;99.90
9219;DHT22;4644;48.858;9.184;2023-03-01T06:59:30;-0.10;99.90
9219;DHT22;4644;48.858;9.184;2023-03-01T07:01:57;-0.10;99.90
9219;DHT22;4644;48.858;9.184;2023-03-01T07:04:24;-0.10;99.90
9219;DHT22;4644;48.858;9.184;2023-03-01T07:06:54;-0.10;99.90
9219;DHT22;4644;48.858;9.184;2023-03-01T07:09:21;0.00;99.90
9219;DHT22;4644;48.858;9.184;2023-03-01T07:11:48;0.00;99.90
9219;DHT22;4644;48.858;9.184;2023-03-01T07:14:15;0.10;99.90
9219;DHT22;4644;48.858;9.184;2023-03-01T07:16:44;0.00;99.90
9219;DHT22;4644;48.858;9.184;2023-03-01T07:19:11;0.20;99.90
9219;DHT22;4644;48.858;9.184;2023-03-01T07:21:38;0.30;99.90
9219;DHT22;4644;48.858;9.184;2023-03-01T07:24:06;0.40;99.90
9219;DHT22;4644;48.858;9.184;2023-03-01T07:26:33;0.50;99.90
9219;DHT22;4644;48.858;9.184;2023-03-01T07:29:01;0.80;99.90
9219;DHT22;4644;48.858;9.184;2023-03-01T07:31:28;0.90;99.90
9219;DHT22;4644;48.858;9.184;2023-03-01T07:33:56;1.10;99.90
9219;DHT22;4644;48.858;9.184;2023-03-01T07:36:23;1.30;99.90
9219;DHT22;4644;48.858;9.184;2023-03-01T07:38:50;1.40;99.90
9219;DHT22;4644;48.858;9.184;2023-03-01T07:41:18;1.50;99.90
9219;DHT22;4644;48.858;9.184;2023-03-01T07:43:44;1.70;99.90
9219;DHT22;4644;48.858;9.184;2023-03-01T07:46:11;2.00;99.90
9219;DHT22;4644;48.858;9.184;2023-03-01T07:48:38;2.00;99.90
9219;DHT22;4644;48.858;9.184;2023-03-01T07:51:07;2.00;99.90
9219;DHT22;4644;48.858;9.184;2023-03-01T07:53:34;2.10;99.90
9219;DHT22;4644;48.858;9.184;2023-03-01T07:56:03;2.20;99.90
9219;DHT22;4644;48.858;9.184;2023-03-01T07:58:30;2.40;99.90
9219;DHT22;4644;48.858;9.184;2023-03-01T08:01:01;2.60;99.90
9219;DHT22;4644;48.858;9.184;2023-03-01T08:03:28;2.80;99.90
9219;DHT22;4644;48.858;9.184;2023-03-01T08:05:55;3.00;99.90
9219;DHT22;4644;48.858;9.184;2023-03-01T08:08:23;3.10;99.90
9219;DHT22;4644;48.858;9.184;2023-03-01T08:10:51;3.00;99.90
9219;DHT22;4644;48.858;9.184;2023-03-01T08:13:18;3.10;99.90
9219;DHT22;4644;48.858;9.184;2023-03-01T08:15:48;3.00;99.90
9219;DHT22;4644;48.858;9.184;2023-03-01T08:18:15;3.10;99.90
9219;DHT22;4644;48.858;9.184;2023-03-01T08:20:41;3.30;99.90
9219;DHT22;4644;48.858;9.184;2023-03-01T08:23:08;3.50;99.90
9219;DHT22;4644;48.858;9.184;2023-03-01T08:25:37;3.60;99.90
9219;DHT22;4644;48.858;9.184;2023-03-01T08:28:05;3.70;99.90
9219;DHT22;4644;48.858;9.184;2023-03-01T08:30:33;3.70;99.50
9219;DHT22;4644;48.858;9.184;2023-03-01T08:33:00;3.70;99.90
9219;DHT22;4644;48.858;9.184;2023-03-01T08:35:27;3.70;99.60
9219;DHT22;4644;48.858;9.184;2023-03-01T08:37:54;3.70;99.10
9219;DHT22;4644;48.858;9.184;2023-03-01T08:40:21;3.60;99.90
9219;DHT22;4644;48.858;9.184;2023-03-01T08:42:50;3.50;99.40
9219;DHT22;4644;48.858;9.184;2023-03-01T08:45:17;3.60;99.60
9219;DHT22;4644;48.858;9.184;2023-03-01T08:47:44;4.00;99.90
9219;DHT22;4644;48.858;9.184;2023-03-01T08:50:11;4.20;99.30
9219;DHT22;4644;48.858;9.184;2023-03-01T08:52:38;4.20;98.50
9219;DHT22;4644;48.858;9.184;2023-03-01T08:55:07;4.10;98.60
9219;DHT22;4644;48.858;9.184;2023-03-01T08:57:34;4.00;98.90
9219;DHT22;4644;48.858;9.184;2023-03-01T09:00:03;3.80;99.00
9219;DHT22;4644;48.858;9.184;2023-03-01T09:02:34;4.00;99.30
9219;DHT22;4644;48.858;9.184;2023-03-01T09:05:01;4.10;98.80
9219;DHT22;4644;48.858;9.184;2023-03-01T09:07:28;4.30;99.20
9219;DHT22;4644;48.858;9.184;2023-03-01T09:09:55;4.40;98.50
9219;DHT22;4644;48.858;9.184;2023-03-01T09:12:24;4.50;98.10
9219;DHT22;4644;48.858;9.184;2023-03-01T09:14:52;4.60;97.90
9219;DHT22;4644;48.858;9.184;2023-03-01T09:17:20;4.80;97.30
9219;DHT22;4644;48.858;9.184;2023-03-01T09:19:48;4.90;97.10
9219;DHT22;4644;48.858;9.184;2023-03-01T09:22:15;5.00;97.30
9219;DHT22;4644;48.858;9.184;2023-03-01T09:24:42;5.30;96.40
9219;DHT22;4644;48.858;9.184;2023-03-01T09:27:09;5.50;96.10
9219;DHT22;4644;48.858;9.184;2023-03-01T09:29:38;5.70;95.60
9219;DHT22;4644;48.858;9.184;2023-03-01T09:32:05;5.70;96.80
9219;DHT22;4644;48.858;9.184;2023-03-01T09:34:35;5.70;95.00
9219;DHT22;4644;48.858;9.184;2023-03-01T09:37:22;5.90;95.90
9219;DHT22;4644;48.858;9.184;2023-03-01T09:39:49;6.00;94.70
9219;DHT22;4644;48.858;9.184;2023-03-01T09:42:16;5.90;95.50
9219;DHT22;4644;48.858;9.184;2023-03-01T09:44:47;6.20;94.40
9219;DHT22;4644;48.858;9.184;2023-03-01T09:47:18;6.30;95.60
9219;DHT22;4644;48.858;9.184;2023-03-01T09:49:57;6.50;94.30
9219;DHT22;4644;48.858;9.184;2023-03-01T09:52:29;6.50;93.70
9219;DHT22;4644;48.858;9.184;2023-03-01T09:55:00;6.50;94.70
9219;DHT22;4644;48.858;9.184;2023-03-01T09:57:35;6.70;94.30
9219;DHT22;4644;48.858;9.184;2023-03-01T10:00:26;6.90;93.50
9219;DHT22;4644;48.858;9.184;2023-03-01T10:03:01;7.10;93.50
9219;DHT22;4644;48.858;9.184;2023-03-01T10:05:39;7.10;92.90
9219;DHT22;4644;48.858;9.184;2023-03-01T10:08:30;7.30;92.10
9219;DHT22;4644;48.858;9.184;2023-03-01T10:11:01;7.30;91.80
9219;DHT22;4644;48.858;9.184;2023-03-01T10:13:36;7.30;91.30
9219;DHT22;4644;48.858;9.184;2023-03-01T10:16:10;6.80;91.80
9219;DHT22;4644;48.858;9.184;2023-03-01T10:18:40;6.90;91.80
9219;DHT22;4644;48.858;9.184;2023-03-01T10:21:14;7.20;91.40
9219;DHT22;4644;48.858;9.184;2023-03-01T10:23:42;7.50;91.10
9219;DHT22;4644;48.858;9.184;2023-03-01T10:26:27;7.50;90.60
9219;DHT22;4644;48.858;9.184;2023-03-01T10:29:04;7.70;91.00
9219;DHT22;4644;48.858;9.184;2023-03-01T10:31:42;7.90;91.80
9219;DHT22;4644;48.858;9.184;2023-03-01T10:34:12;8.20;90.00
9219;DHT22;4644;48.858;9.184;2023-03-01T10:36:42;8.20;89.60
9219;DHT22;4644;48.858;9.184;2023-03-01T10:39:15;8.30;90.90
9219;DHT22;4644;48.858;9.184;2023-03-01T10:42:02;8.40;88.70
9219;DHT22;4644;48.858;9.184;2023-03-01T10:44:43;8.60;88.90
9219;DHT22;4644;48.858;9.184;2023-03-01T10:47:19;8.60;90.40
9219;DHT22;4644;48.858;9.184;2023-03-01T10:49:55;8.50;87.50
9219;DHT22;4644;48.858;9.184;2023-03-01T10:52:27;8.60;90.10
9219;DHT22;4644;48.858;9.184;2023-03-01T10:54:56;8.30;89.70
9219;DHT22;4644;48.858;9.184;2023-03-01T10:57:33;8.10;87.70
9219;DHT22;4644;48.858;9.184;2023-03-01T11:00:19;8.00;87.90
9219;DHT22;4644;48.858;9.184;2023-03-01T11:02:51;8.10;88.10
9219;DHT22;4644;48.858;9.184;2023-03-01T11:05:23;8.20;90.10
9219;DHT22;4644;48.858;9.184;2023-03-01T11:07:55;8.20;88.50
9219;DHT22;4644;48.858;9.184;2023-03-01T11:10:23;8.00;86.60
9219;DHT22;4644;48.858;9.184;2023-03-01T11:12:52;8.40;88.40
9219;DHT22;4644;48.858;9.184;2023-03-01T11:15:25;8.50;86.80
9219;DHT22;4644;48.858;9.184;2023-03-01T11:17:53;8.30;88.10
9219;DHT22;4644;48.858;9.184;2023-03-01T11:20:25;8.10;85.20
9219;DHT22;4644;48.858;9.184;2023-03-01T11:22:56;8.30;85.90
9219;DHT22;4644;48.858;9.184;2023-03-01T11:25:26;8.00;87.90
9219;DHT22;4644;48.858;9.184;2023-03-01T11:27:54;7.90;89.30
9219;DHT22;4644;48.858;9.184;2023-03-01T11:30:26;7.90;89.30
9219;DHT22;4644;48.858;9.184;2023-03-01T11:33:03;8.10;89.00
9219;DHT22;4644;48.858;9.184;2023-03-01T11:35:32;8.20;87.30
9219;DHT22;4644;48.858;9.184;2023-03-01T11:38:15;8.40;85.10
9219;DHT22;4644;48.858;9.184;2023-03-01T11:40:46;8.40;86.40
9219;DHT22;4644;48.858;9.184;2023-03-01T11:43:21;8.70;84.80
9219;DHT22;4644;48.858;9.184;2023-03-01T11:46:08;8.80;85.80
9219;DHT22;4644;48.858;9.184;2023-03-01T11:48:50;9.10;86.70
9219;DHT22;4644;48.858;9.184;2023-03-01T11:51:24;9.70;84.50
9219;DHT22;4644;48.858;9.184;2023-03-01T11:54:04;10.10;82.50
9219;DHT22;4644;48.858;9.184;2023-03-01T11:56:35;9.90;81.90
9219;DHT22;4644;48.858;9.184;2023-03-01T11:59:23;10.10;80.40
9219;DHT22;4644;48.858;9.184;2023-03-01T12:02:07;10.50;78.60
9219;DHT22;4644;48.858;9.184;2023-03-01T12:05:10;10.20;78.10
9219;DHT22;4644;48.858;9.184;2023-03-01T12:07:49;10.30;78.40
9219;DHT22;4644;48.858;9.184;2023-03-01T12:10:26;10.70;79.80
9219;DHT22;4644;48.858;9.184;2023-03-01T12:13:03;11.10;76.20
9219;DHT22;4644;48.858;9.184;2023-03-01T12:15:49;11.40;75.00
9219;DHT22;4644;48.858;9.184;2023-03-01T12:21:21;11.90;72.50
9219;DHT22;4644;48.858;9.184;2023-03-01T12:24:06;12.00;72.20
9219;DHT22;4644;48.858;9.184;2023-03-01T12:26:47;12.10;70.80
9219;DHT22;4644;48.858;9.184;2023-03-01T12:29:25;12.00;70.80
9219;DHT22;4644;48.858;9.184;2023-03-01T12:34:53;10.80;71.00
9219;DHT22;4644;48.858;9.184;2023-03-01T12:37:28;10.20;72.70
9219;DHT22;4644;48.858;9.184;2023-03-01T12:40:14;9.50;76.80
9219;DHT22;4644;48.858;9.184;2023-03-01T12:42:51;9.20;81.60
9219;DHT22;4644;48.858;9.184;2023-03-01T12:45:44;8.90;78.60
9219;DHT22;4644;48.858;9.184;2023-03-01T12:48:24;8.60;79.70
9219;DHT22;4644;48.858;9.184;2023-03-01T12:50:55;8.60;80.70
9219;DHT22;4644;48.858;9.184;2023-03-01T12:53:26;8.60;80.50
9219;DHT22;4644;48.858;9.184;2023-03-01T12:55:56;8.60;83.60
9219;DHT22;4644;48.858;9.184;2023-03-01T12:58:29;8.60;84.40
9219;DHT22;4644;48.858;9.184;2023-03-01T13:01:05;8.50;82.80
9219;DHT22;4644;48.858;9.184;2023-03-01T13:04:12;8.50;81.90
9219;DHT22;4644;48.858;9.184;2023-03-01T13:06:46;8.40;82.60
9219;DHT22;4644;48.858;9.184;2023-03-01T13:09:19;8.30;81.80
9219;DHT22;4644;48.858;9.184;2023-03-01T13:11:49;8.30;82.00
9219;DHT22;4644;48.858;9.184;2023-03-01T13:14:37;8.30;81.30
9219;DHT22;4644;48.858;9.184;2023-03-01T13:17:32;8.10;81.50
9219;DHT22;4644;48.858;9.184;2023-03-01T13:19:59;8.10;82.30
9219;DHT22;4644;48.858;9.184;2023-03-01T13:22:29;8.10;82.30
9219;DHT22;4644;48.858;9.184;2023-03-01T13:25:03;8.00;83.10
9219;DHT22;4644;48.858;9.184;2023-03-01T13:27:38;8.10;84.40
9219;DHT22;4644;48.858;9.184;2023-03-01T13:30:40;8.20;84.20
9219;DHT22;4644;48.858;9.184;2023-03-01T13:36:47;7.90;83.20
9219;DHT22;4644;48.858;9.184;2023-03-01T13:39:38;7.90;85.30
9219;DHT22;4644;48.858;9.184;2023-03-01T13:42:34;7.90;86.70
9219;DHT22;4644;48.858;9.184;2023-03-01T13:45:04;7.90;83.60
9219;DHT22;4644;48.858;9.184;2023-03-01T13:47:35;7.90;83.60
9219;DHT22;4644;48.858;9.184;2023-03-01T13:50:04;8.00;84.40
9219;DHT22;4644;48.858;9.184;2023-03-01T13:52:38;7.90;83.50
9219;DHT22;4644;48.858;9.184;2023-03-01T13:55:16;7.90;85.10
9219;DHT22;4644;48.858;9.184;2023-03-01T13:57:46;7.90;85.50
9219;DHT22;4644;48.858;9.184;2023-03-01T14:00:55;7.80;86.40
9219;DHT22;4644;48.858;9.184;2023-03-01T14:03:24;7.80;85.40
9219;DHT22;4644;48.858;9.184;2023-03-01T14:06:03;7.80;85.40
9219;DHT22;4644;48.858;9.184;2023-03-01T14:08:34;7.70;85.50
9219;DHT22;4644;48.858;9.184;2023-03-01T14:11:33;7.60;86.40
9219;DHT22;4644;48.858;9.184;2023-03-01T14:14:18;7.70;86.70
9219;DHT22;4644;48.858;9.184;2023-03-01T14:16:58;7.70;86.20
9219;DHT22;4644;48.858;9.184;2023-03-01T14:19:29;7.80;86.30
9219;DHT22;4644;48.858;9.184;2023-03-01T14:22:05;7.80;86.10
9219;DHT22;4644;48.858;9.184;2023-03-01T14:24:38;7.70;87.20
9219;DHT22;4644;48.858;9.184;2023-03-01T14:27:11;7.70;86.70
9219;DHT22;4644;48.858;9.184;2023-03-01T14:29:39;7.70;86.90
9219;DHT22;4644;48.858;9.184;2023-03-01T14:32:11;7.70;86.70
9219;DHT22;4644;48.858;9.184;2023-03-01T14:34:44;7.70;87.00
9219;DHT22;4644;48.858;9.184;2023-03-01T14:37:19;7.70;87.50
9219;DHT22;4644;48.858;9.184;2023-03-01T14:39:47;7.70;87.30
9219;DHT22;4644;48.858;9.184;2023-03-01T14:42:15;7.70;86.30
9219;DHT22;4644;48.858;9.184;2023-03-01T14:44:43;7.60;86.50
9219;DHT22;4644;48.858;9.184;2023-03-01T14:47:13;7.50;87.80
9219;DHT22;4644;48.858;9.184;2023-03-01T14:49:42;7.50;87.20
9219;DHT22;4644;48.858;9.184;2023-03-01T14:52:20;7.50;87.80
9219;DHT22;4644;48.858;9.184;2023-03-01T14:54:49;7.40;87.70
9219;DHT22;4644;48.858;9.184;2023-03-01T14:57:20;7.40;87.70
9219;DHT22;4644;48.858;9.184;2023-03-01T14:59:49;7.40;87.70
9219;DHT22;4644;48.858;9.184;2023-03-01T15:02:20;7.40;88.30
9219;DHT22;4644;48.858;9.184;2023-03-01T15:04:51;7.40;89.00
9219;DHT22;4644;48.858;9.184;2023-03-01T15:07:19;7.40;88.20
9219;DHT22;4644;48.858;9.184;2023-03-01T15:09:47;7.40;88.00
9219;DHT22;4644;48.858;9.184;2023-03-01T15:12:38;7.40;88.40
9219;DHT22;4644;48.858;9.184;2023-03-01T15:15:30;7.40;87.70
9219;DHT22;4644;48.858;9.184;2023-03-01T15:17:59;7.40;88.10
9219;DHT22;4644;48.858;9.184;2023-03-01T15:20:28;7.40;87.70
9219;DHT22;4644;48.858;9.184;2023-03-01T15:22:59;7.40;87.70
9219;DHT22;4644;48.858;9.184;2023-03-01T15:25:29;7.40;87.70
9219;DHT22;4644;48.858;9.184;2023-03-01T15:27:58;7.30;87.60
9219;DHT22;4644;48.858;9.184;2023-03-01T15:30:27;7.30;87.60
9219;DHT22;4644;48.858;9.184;2023-03-01T15:33:35;7.20;86.90
9219;DHT22;4644;48.858;9.184;2023-03-01T15:36:29;7.20;87.50
9219;DHT22;4644;48.858;9.184;2023-03-01T15:38:59;7.10;87.40
9219;DHT22;4644;48.858;9.184;2023-03-01T15:41:28;7.20;88.20
9219;DHT22;4644;48.858;9.184;2023-03-01T15:43:57;7.20;87.50
9219;DHT22;4644;48.858;9.184;2023-03-01T15:46:27;7.10;87.40
9219;DHT22;4644;48.858;9.184;2023-03-01T15:48:57;7.00;87.90
9219;DHT22;4644;48.858;9.184;2023-03-01T15:51:30;7.10;88.70
9219;DHT22;4644;48.858;9.184;2023-03-01T15:54:01;7.10;88.00
9219;DHT22;4644;48.858;9.184;2023-03-01T15:56:29;7.00;88.60
9219;DHT22;4644;48.858;9.184;2023-03-01T15:59:00;7.00;88.70
9219;DHT22;4644;48.858;9.184;2023-03-01T16:01:28;7.00;88.40
9219;DHT22;4644;48.858;9.184;2023-03-01T16:03:55;6.90;88.40
9219;DHT22;4644;48.858;9.184;2023-03-01T16:06:24;7.00;88.60
9219;DHT22;4644;48.858;9.184;2023-03-01T16:08:51;6.90;88.60
9219;DHT22;4644;48.858;9.184;2023-03-01T16:11:20;6.90;89.50
9219;DHT22;4644;48.858;9.184;2023-03-01T16:13:47;6.90;89.10
9219;DHT22;4644;48.858;9.184;2023-03-01T16:16:15;6.80;89.70
9219;DHT22;4644;48.858;9.184;2023-03-01T16:18:44;6.80;89.50
9219;DHT22;4644;48.858;9.184;2023-03-01T16:21:16;6.80;89.80
9219;DHT22;4644;48.858;9.184;2023-03-01T16:23:45;6.70;89.80
9219;DHT22;4644;48.858;9.184;2023-03-01T16:26:12;6.70;89.60
9219;DHT22;4644;48.858;9.184;2023-03-01T16:28:41;6.70;89.70
9219;DHT22;4644;48.858;9.184;2023-03-01T16:31:09;6.60;90.20
9219;DHT22;4644;48.858;9.184;2023-03-01T16:33:37;6.60;90.00
9219;DHT22;4644;48.858;9.184;2023-03-01T16:36:08;6.50;90.30
9219;DHT22;4644;48.858;9.184;2023-03-01T16:38:35;6.50;90.00
9219;DHT22;4644;48.858;9.184;2023-03-01T16:41:03;6.40;90.30
9219;DHT22;4644;48.858;9.184;2023-03-01T16:43:30;6.40;90.40
9219;DHT22;4644;48.858;9.184;2023-03-01T16:45:58;6.30;90.60